Terminal Aerodrome Forecast
Issued by NWS

Home | Current Version | Previous Version | Text Only | Print | Product List | Glossary On
Versions: 1 2 3 4 5 6 7 8 9 10 11 12 13 14 15 16 17 18 19 20 21 22 23 24 25 26 27 28 29 30
000
FTUS41 KBOX 192328
TAFACK
TAF
KACK 192328Z 2000/2024 18013KT P6SM VCSH OVC050
     FM200100 19013G22KT 6SM -SHRA OVC045
     FM200400 20013G21KT 4SM -SHRA BR OVC025 WS020/23040KT
     FM200800 22014G22KT 2SM BR VCSH OVC003 WS020/24045KT
     FM201300 23014KT 1 1/2SM BR OVC003 WS020/25040KT
     FM201700 23015G22KT 6SM BR BKN010 WS020/25040KT
     FM202000 23015G23KT P6SM BKN008 WS020/26045KT=

USA.gov is the U.S. government's official web portal to all federal, state and local government web resources and services.